createdAt,value
2023-01-05T00:02:17.427Z,12.18
2023-01-05T00:04:51.618Z,10.53
2023-01-05T00:07:23.038Z,10.38
2023-01-05T00:09:54.455Z,10.82
2023-01-05T00:12:25.878Z,10.93
2023-01-05T00:14:57.348Z,10.02
2023-01-05T00:17:28.783Z,10.65
2023-01-05T00:20:00.246Z,10.93
2023-01-05T00:22:34.604Z,9.88
2023-01-05T00:25:12.937Z,12.03
2023-01-05T00:27:46.521Z,10.32
2023-01-05T00:30:22.261Z,10.25
2023-01-05T00:32:54.217Z,10.45
2023-01-05T00:35:25.709Z,9.82
2023-01-05T00:37:57.204Z,10.55
2023-01-05T00:40:28.675Z,10.95
2023-01-05T00:43:00.130Z,10.15
2023-01-05T00:45:31.692Z,10.18
2023-01-05T00:48:03.358Z,10.55
2023-01-05T00:50:34.776Z,11.43
2023-01-05T00:53:06.244Z,9.80
2023-01-05T00:55:37.678Z,11.80
2023-01-05T00:58:09.102Z,11.50
2023-01-05T01:00:47.378Z,11.07
2023-01-05T01:03:19.212Z,10.43
2023-01-05T01:05:57.921Z,10.90
2023-01-05T01:08:29.397Z,10.23
2023-01-05T01:11:09.048Z,10.57
2023-01-05T01:13:40.528Z,10.90
2023-01-05T01:16:14.733Z,11.25
2023-01-05T01:18:46.275Z,10.10
2023-01-05T01:21:18.410Z,10.48
2023-01-05T01:23:49.990Z,10.52
2023-01-05T01:26:21.568Z,11.48
2023-01-05T01:28:53.000Z,10.70
2023-01-05T01:31:24.598Z,10.97
2023-01-05T01:33:56.035Z,10.20
2023-01-05T01:36:27.636Z,10.83
2023-01-05T01:38:59.120Z,10.73
2023-01-05T01:41:30.660Z,10.27
2023-01-05T01:44:02.179Z,10.57
2023-01-05T01:46:33.607Z,11.23
2023-01-05T01:49:09.088Z,10.55
2023-01-05T01:51:44.911Z,10.23
2023-01-05T01:54:18.440Z,10.43
2023-01-05T01:56:54.790Z,10.27
2023-01-05T01:59:27.756Z,10.52
2023-01-05T02:02:01.442Z,10.00
2023-01-05T02:04:33.640Z,9.33
2023-01-05T02:07:09.725Z,10.07
2023-01-05T02:09:41.269Z,10.13
2023-01-05T02:12:28.781Z,10.70
2023-01-05T02:15:15.260Z,9.80
2023-01-05T02:18:19.281Z,10.25
2023-01-05T02:21:17.087Z,10.45
2023-01-05T02:23:54.898Z,9.45
2023-01-05T02:26:38.966Z,10.85
2023-01-05T02:29:32.255Z,9.90
2023-01-05T02:32:17.739Z,10.30
2023-01-05T02:35:07.124Z,9.20
2023-01-05T02:37:38.482Z,9.23
2023-01-05T02:40:15.481Z,9.45
2023-01-05T02:42:50.964Z,10.10
2023-01-05T02:45:23.863Z,10.50
2023-01-05T02:47:55.321Z,9.80
2023-01-05T02:50:31.772Z,9.60
2023-01-05T02:53:09.272Z,9.98
2023-01-05T02:55:48.921Z,10.77
2023-01-05T02:58:39.671Z,10.32
2023-01-05T03:01:28.719Z,9.65
2023-01-05T03:04:05.749Z,9.38
2023-01-05T03:07:01.886Z,9.45
2023-01-05T03:09:37.407Z,8.88
2023-01-05T03:12:20.999Z,9.48
2023-01-05T03:14:56.788Z,10.30
2023-01-05T03:17:43.272Z,10.10
2023-01-05T03:20:18.185Z,9.70
2023-01-05T03:22:52.238Z,9.40
2023-01-05T03:25:25.320Z,9.05
2023-01-05T03:27:57.225Z,9.23
2023-01-05T03:31:00.530Z,9.75
2023-01-05T03:33:43.493Z,9.98
2023-01-05T03:36:23.101Z,10.05
2023-01-05T03:38:58.490Z,9.68
2023-01-05T03:41:30.822Z,9.23
2023-01-05T03:44:02.752Z,9.95
2023-01-05T03:46:34.426Z,10.02
2023-01-05T03:49:05.855Z,10.13
2023-01-05T03:51:41.673Z,10.25
2023-01-05T03:54:13.672Z,10.07
2023-01-05T03:56:45.094Z,10.20
2023-01-05T03:59:16.555Z,10.30
2023-01-05T04:01:48.159Z,9.98
2023-01-05T04:04:19.819Z,10.18
2023-01-05T04:06:51.327Z,10.25
2023-01-05T04:09:22.792Z,10.18
2023-01-05T04:11:54.265Z,10.95
2023-01-05T04:14:25.732Z,9.95
2023-01-05T04:16:57.204Z,11.00
2023-01-05T04:19:28.656Z,10.23
2023-01-05T04:22:00.112Z,10.95
2023-01-05T04:24:31.569Z,10.57
2023-01-05T04:27:03.057Z,10.73
2023-01-05T04:29:34.613Z,11.02
2023-01-05T04:32:06.269Z,10.20
2023-01-05T04:34:37.705Z,11.00
2023-01-05T04:37:09.163Z,10.68
2023-01-05T04:39:40.640Z,10.77
2023-01-05T04:42:12.189Z,10.95
2023-01-05T04:44:43.675Z,10.73
2023-01-05T04:47:15.105Z,10.50
2023-01-05T04:49:46.494Z,11.32
2023-01-05T04:52:17.931Z,10.73
2023-01-05T04:54:49.496Z,11.33
2023-01-05T04:57:21.066Z,10.30
2023-01-05T04:59:52.506Z,11.63
2023-01-05T05:02:24.079Z,10.55
2023-01-05T05:04:55.762Z,11.27
2023-01-05T05:07:27.259Z,10.90
2023-01-05T05:09:58.704Z,10.73
2023-01-05T05:12:30.130Z,10.00
2023-01-05T05:15:01.553Z,10.85
2023-01-05T05:17:33.241Z,9.93
2023-01-05T05:20:05.359Z,10.68
2023-01-05T05:22:36.825Z,9.73
2023-01-05T05:25:08.581Z,11.47
2023-01-05T05:27:40.072Z,10.48
2023-01-05T05:30:11.880Z,10.37
2023-01-05T05:32:44.601Z,10.48
2023-01-05T05:35:16.277Z,10.85
2023-01-05T05:37:51.515Z,10.85
2023-01-05T05:40:28.723Z,10.38
2023-01-05T05:43:00.155Z,9.85
2023-01-05T05:45:31.748Z,10.77
2023-01-05T05:48:03.304Z,10.25
2023-01-05T05:50:34.749Z,10.77
2023-01-05T05:53:06.610Z,10.13
2023-01-05T05:55:38.093Z,10.52
2023-01-05T05:58:09.555Z,10.40
2023-01-05T06:00:41.407Z,10.32
2023-01-05T06:03:12.960Z,10.75
2023-01-05T06:05:44.651Z,10.37
2023-01-05T06:08:16.117Z,10.02
2023-01-05T06:10:49.157Z,10.60
2023-01-05T06:13:21.191Z,9.50
2023-01-05T06:15:52.839Z,11.27
2023-01-05T06:18:24.364Z,10.68
2023-01-05T06:21:01.309Z,10.82
2023-01-05T06:23:33.315Z,10.45
2023-01-05T06:26:05.022Z,10.80
2023-01-05T06:28:36.463Z,10.52
2023-01-05T06:31:07.999Z,9.80
2023-01-05T06:33:39.456Z,10.30
2023-01-05T06:36:10.996Z,10.30
2023-01-05T06:38:42.439Z,10.80
2023-01-05T06:41:13.935Z,10.63
2023-01-05T06:43:45.369Z,9.98
2023-01-05T06:46:16.837Z,9.80
2023-01-05T06:48:48.266Z,10.85
2023-01-05T06:51:19.817Z,10.47
2023-01-05T06:53:51.219Z,10.38
2023-01-05T06:56:22.631Z,9.70
2023-01-05T06:58:54.053Z,10.90
2023-01-05T07:01:25.633Z,10.52
2023-01-05T07:03:57.257Z,10.90
2023-01-05T07:06:28.936Z,10.02
2023-01-05T07:09:00.343Z,10.73
2023-01-05T07:11:31.808Z,10.98
2023-01-05T07:14:03.452Z,10.40
2023-01-05T07:16:34.885Z,11.48
2023-01-05T07:19:06.342Z,10.00
2023-01-05T07:21:37.824Z,10.70
2023-01-05T07:24:09.551Z,10.35
2023-01-05T07:26:41.008Z,12.27
2023-01-05T07:29:12.474Z,10.57
2023-01-05T07:31:43.960Z,10.98
2023-01-05T07:34:15.442Z,10.38
2023-01-05T07:36:46.991Z,10.38
2023-01-05T07:39:18.452Z,11.68
2023-01-05T07:41:50.001Z,11.77
2023-01-05T07:44:21.489Z,10.60
2023-01-05T07:46:52.996Z,10.32
2023-01-05T07:49:24.427Z,10.97
2023-01-05T07:51:56.067Z,10.68
2023-01-05T07:54:27.546Z,10.90
2023-01-05T07:56:58.975Z,9.95
2023-01-05T07:59:30.422Z,10.13
2023-01-05T08:02:01.932Z,10.50
2023-01-05T08:04:33.492Z,10.05
2023-01-05T08:07:06.242Z,9.97
2023-01-05T08:09:38.836Z,10.02
2023-01-05T08:12:10.264Z,11.05
2023-01-05T08:14:45.132Z,9.57
2023-01-05T08:17:16.573Z,10.52
2023-01-05T08:19:48.259Z,10.57
2023-01-05T08:22:19.711Z,9.27
2023-01-05T08:24:51.162Z,10.65
2023-01-05T08:27:22.627Z,9.57
2023-01-05T08:29:54.103Z,10.05
2023-01-05T08:32:25.560Z,10.20
2023-01-05T08:34:56.980Z,10.25
2023-01-05T08:37:28.375Z,9.73
2023-01-05T08:39:59.847Z,9.23
2023-01-05T08:42:31.311Z,9.13
2023-01-05T08:45:03.644Z,9.45
2023-01-05T08:47:35.044Z,9.60
2023-01-05T08:50:07.091Z,8.85
2023-01-05T08:52:38.735Z,9.07
2023-01-05T08:55:10.191Z,9.77
2023-01-05T08:57:41.610Z,9.65
2023-01-05T09:00:13.615Z,9.93
2023-01-05T09:02:45.234Z,9.93
2023-01-05T09:05:17.095Z,10.23
2023-01-05T09:07:48.580Z,9.57
2023-01-05T09:10:19.999Z,10.63
2023-01-05T09:12:51.476Z,9.88
2023-01-05T09:15:22.889Z,10.25
2023-01-05T09:17:54.375Z,10.88
2023-01-05T09:20:25.864Z,9.88
2023-01-05T09:22:57.340Z,10.20
2023-01-05T09:25:28.817Z,10.00
2023-01-05T09:28:00.251Z,10.38
2023-01-05T09:30:38.500Z,9.75
2023-01-05T09:33:13.519Z,10.25
2023-01-05T09:35:44.961Z,10.07
2023-01-05T09:38:16.387Z,10.15
2023-01-05T09:40:50.037Z,10.05
2023-01-05T09:43:36.538Z,10.73
2023-01-05T09:46:18.366Z,9.93
2023-01-05T09:48:57.055Z,10.20
2023-01-05T09:51:30.026Z,11.65
2023-01-05T09:54:02.483Z,11.07
2023-01-05T09:57:08.397Z,11.07
2023-01-05T09:59:42.992Z,10.50
2023-01-05T10:02:25.424Z,10.52
2023-01-05T10:04:58.256Z,11.00
2023-01-05T10:07:37.203Z,11.57
2023-01-05T10:10:44.012Z,10.68
2023-01-05T10:13:26.069Z,11.07
2023-01-05T10:15:57.589Z,12.17
2023-01-05T10:18:31.058Z,10.85
2023-01-05T10:21:11.441Z,11.23
2023-01-05T10:23:48.947Z,11.60
2023-01-05T10:26:20.319Z,11.95
2023-01-05T10:28:51.714Z,11.07
2023-01-05T10:31:30.311Z,11.63
2023-01-05T10:34:23.693Z,10.98
2023-01-05T10:37:10.163Z,11.73
2023-01-05T10:39:56.704Z,11.82
2023-01-05T10:42:43.254Z,12.52
2023-01-05T10:45:16.868Z,11.48
2023-01-05T10:47:50.080Z,12.00
2023-01-05T10:50:30.499Z,11.93
2023-01-05T10:53:09.527Z,10.80
2023-01-05T10:55:52.181Z,11.27
2023-01-05T10:58:29.526Z,11.10
2023-01-05T11:01:15.130Z,11.23
2023-01-05T11:06:40.383Z,10.57
2023-01-05T11:09:24.565Z,10.15
2023-01-05T11:12:03.126Z,10.57
2023-01-05T11:14:42.365Z,11.83
2023-01-05T11:17:19.371Z,11.53
2023-01-05T11:19:55.919Z,11.63
2023-01-05T11:22:31.330Z,10.55
2023-01-05T11:25:19.526Z,10.15
2023-01-05T11:28:09.654Z,11.25
2023-01-05T11:30:59.953Z,10.93
2023-01-05T11:33:34.699Z,11.98
2023-01-05T11:36:06.615Z,10.80
2023-01-05T11:38:38.123Z,10.32
2023-01-05T11:41:11.938Z,10.70
2023-01-05T11:43:47.247Z,10.90
2023-01-05T11:46:19.017Z,11.18
2023-01-05T11:48:55.547Z,11.45
2023-01-05T11:51:40.744Z,11.03
2023-01-05T11:54:35.371Z,10.27
2023-01-05T11:57:14.708Z,9.80
2023-01-05T11:59:46.976Z,10.60
2023-01-05T12:03:12.507Z,11.45
2023-01-05T12:05:49.775Z,10.73
2023-01-05T12:08:27.230Z,10.95
2023-01-05T12:11:18.395Z,12.13
2023-01-05T12:13:58.771Z,10.98
2023-01-05T12:16:46.843Z,10.93
2023-01-05T12:19:36.673Z,15.02
2023-01-05T12:22:50.593Z,12.25
2023-01-05T12:25:51.135Z,10.93
2023-01-05T12:29:29.398Z,11.00
2023-01-05T12:35:00.430Z,11.98
2023-01-05T12:37:57.721Z,10.07
2023-01-05T12:40:35.744Z,10.32
2023-01-05T12:43:10.715Z,9.93
2023-01-05T12:46:02.471Z,9.65
2023-01-05T12:48:46.093Z,10.05
2023-01-05T12:51:30.043Z,9.97
2023-01-05T12:54:09.490Z,8.93
2023-01-05T12:56:54.136Z,11.32
2023-01-05T12:59:36.627Z,9.68
2023-01-05T13:02:19.437Z,10.67
2023-01-05T13:04:58.779Z,9.30
2023-01-05T13:07:41.145Z,10.03
2023-01-05T13:10:20.814Z,9.70
2023-01-05T13:13:02.116Z,9.43
2023-01-05T13:15:40.735Z,10.17
2023-01-05T13:18:16.198Z,9.80
2023-01-05T13:20:57.057Z,9.27
2023-01-05T13:23:44.162Z,9.15
2023-01-05T13:26:18.656Z,9.77
2023-01-05T13:28:53.700Z,10.30
2023-01-05T13:31:25.162Z,9.13
2023-01-05T13:34:18.602Z,8.88
2023-01-05T13:37:03.713Z,8.77
2023-01-05T13:39:48.988Z,10.38
2023-01-05T13:42:35.561Z,9.35
2023-01-05T13:45:48.183Z,9.82
2023-01-05T13:49:02.852Z,9.95
2023-01-05T13:51:55.571Z,10.27
2023-01-05T13:55:07.808Z,10.73
2023-01-05T13:57:44.190Z,10.00
2023-01-05T14:00:24.636Z,10.43
2023-01-05T14:03:02.543Z,10.75
2023-01-05T14:05:45.213Z,9.50
2023-01-05T14:08:39.125Z,9.32
2023-01-05T14:11:17.869Z,10.07
2023-01-05T14:14:01.073Z,9.18
2023-01-05T14:16:35.734Z,10.15
2023-01-05T14:19:18.866Z,9.90
2023-01-05T14:21:50.300Z,9.40
2023-01-05T14:24:27.779Z,9.38
2023-01-05T14:27:18.509Z,9.48
2023-01-05T14:32:41.344Z,9.43
2023-01-05T14:35:30.706Z,9.40
2023-01-05T14:38:14.190Z,8.82
2023-01-05T14:40:54.535Z,8.88
2023-01-05T14:43:35.601Z,8.43
2023-01-05T14:46:10.522Z,7.00
2023-01-05T14:48:59.201Z,6.38
2023-01-05T14:51:35.670Z,6.38
2023-01-05T14:54:07.213Z,6.25
2023-01-05T14:56:38.765Z,6.13
2023-01-05T14:59:16.446Z,6.50
2023-01-05T15:01:50.128Z,6.10
2023-01-05T15:04:36.143Z,6.88
2023-01-05T15:10:16.077Z,6.78
2023-01-05T15:13:09.334Z,7.68
2023-01-05T15:16:05.104Z,6.55
2023-01-05T15:18:52.940Z,7.10
2023-01-05T15:22:13.507Z,7.47
2023-01-05T15:25:33.189Z,7.03
2023-01-05T15:28:31.238Z,7.27
2023-01-05T15:31:14.678Z,7.53
2023-01-05T15:33:51.994Z,7.60
2023-01-05T15:36:31.943Z,8.25
2023-01-05T15:39:21.381Z,7.45
2023-01-05T15:41:56.426Z,7.22
2023-01-05T15:44:33.343Z,7.53
2023-01-05T15:47:08.439Z,7.57
2023-01-05T15:49:40.614Z,8.27
2023-01-05T15:52:33.935Z,8.05
2023-01-05T15:55:11.318Z,9.30
2023-01-05T15:57:51.285Z,10.87
2023-01-05T16:00:29.263Z,10.57
2023-01-05T16:03:01.340Z,13.00
2023-01-05T16:05:33.943Z,12.45
2023-01-05T16:08:13.739Z,12.05
2023-01-05T16:10:58.069Z,12.13
2023-01-05T16:13:35.656Z,11.90
2023-01-05T16:16:49.739Z,9.82
2023-01-05T16:19:22.592Z,10.77
2023-01-05T16:22:03.580Z,10.00
2023-01-05T16:24:39.069Z,8.45
2023-01-05T16:27:12.754Z,9.00
2023-01-05T16:29:46.695Z,8.23
2023-01-05T16:32:27.911Z,7.43
2023-01-05T16:35:24.167Z,8.30
2023-01-05T16:38:08.902Z,8.10
2023-01-05T16:40:57.804Z,8.30
2023-01-05T16:43:45.461Z,7.75
2023-01-05T16:46:19.799Z,7.50
2023-01-05T16:49:01.770Z,7.93
2023-01-05T16:51:33.188Z,7.80
2023-01-05T16:54:20.926Z,7.55
2023-01-05T16:57:01.807Z,6.45
2023-01-05T16:59:34.942Z,8.23
2023-01-05T17:02:44.167Z,7.73
2023-01-05T17:05:19.025Z,8.73
2023-01-05T17:08:03.641Z,9.07
2023-01-05T17:10:35.068Z,9.00
2023-01-05T17:13:20.748Z,8.70
2023-01-05T17:15:53.215Z,9.25
2023-01-05T17:18:27.260Z,8.73
2023-01-05T17:21:00.255Z,8.63
2023-01-05T17:23:36.507Z,8.05
2023-01-05T17:26:12.813Z,7.88
2023-01-05T17:28:44.323Z,7.03
2023-01-05T17:31:15.848Z,7.53
2023-01-05T17:33:47.307Z,6.95
2023-01-05T17:36:28.644Z,7.07
2023-01-05T17:39:00.218Z,6.13
2023-01-05T17:41:31.880Z,6.45
2023-01-05T17:44:03.272Z,6.78
2023-01-05T17:46:38.506Z,7.03
2023-01-05T17:49:15.866Z,6.20
2023-01-05T17:51:47.750Z,6.72
2023-01-05T17:54:19.366Z,7.20
2023-01-05T17:56:50.824Z,6.93
2023-01-05T17:59:22.263Z,6.93
2023-01-05T18:01:54.945Z,6.50
2023-01-05T18:04:27.337Z,6.45
2023-01-05T18:07:00.219Z,6.20
2023-01-05T18:09:31.848Z,6.20
2023-01-05T18:12:04.056Z,5.87
2023-01-05T18:14:35.624Z,5.28
2023-01-05T18:17:07.032Z,5.35
2023-01-05T18:19:38.478Z,5.20
2023-01-05T18:22:10.434Z,5.88
2023-01-05T18:24:42.549Z,4.60
2023-01-05T18:27:14.111Z,4.60
2023-01-05T18:29:45.633Z,4.85
2023-01-05T18:32:17.780Z,4.60
2023-01-05T18:34:49.199Z,4.87
2023-01-05T18:37:21.741Z,4.43
2023-01-05T18:39:53.459Z,4.30
2023-01-05T18:42:24.863Z,4.75
2023-01-05T18:44:56.320Z,4.68
2023-01-05T18:47:27.743Z,4.67
2023-01-05T18:49:59.249Z,5.00
2023-01-05T18:52:30.670Z,5.60
2023-01-05T18:55:02.362Z,4.78
2023-01-05T18:57:34.203Z,5.57
2023-01-05T19:00:06.421Z,5.53
2023-01-05T19:02:37.821Z,4.95
2023-01-05T19:05:09.393Z,5.95
2023-01-05T19:07:40.866Z,5.97
2023-01-05T19:10:12.306Z,5.55
2023-01-05T19:12:43.766Z,6.28
2023-01-05T19:15:15.239Z,6.95
2023-01-05T19:17:48.958Z,6.85
2023-01-05T19:20:20.592Z,7.30
2023-01-05T19:22:52.103Z,7.82
2023-01-05T19:25:23.504Z,8.40
2023-01-05T19:27:54.966Z,7.88
2023-01-05T19:30:26.637Z,8.82
2023-01-05T19:32:58.072Z,8.05
2023-01-05T19:35:29.518Z,9.05
2023-01-05T19:38:01.358Z,8.20
2023-01-05T19:40:32.789Z,8.65
2023-01-05T19:43:04.224Z,8.43
2023-01-05T19:45:35.678Z,7.50
2023-01-05T19:48:07.123Z,7.93
2023-01-05T19:50:38.544Z,8.15
2023-01-05T19:53:09.965Z,7.18
2023-01-05T19:55:41.395Z,8.20
2023-01-05T19:58:12.806Z,7.93
2023-01-05T20:00:44.263Z,7.05
2023-01-05T20:03:16.019Z,8.38
2023-01-05T20:05:48.473Z,7.25
2023-01-05T20:08:19.870Z,8.27
2023-01-05T20:10:51.346Z,7.47
2023-01-05T20:13:22.795Z,7.55
2023-01-05T20:15:54.272Z,6.75
2023-01-05T20:18:25.704Z,6.93
2023-01-05T20:21:01.516Z,5.88
2023-01-05T20:23:38.814Z,5.68
2023-01-05T20:26:15.624Z,5.82
2023-01-05T20:28:47.570Z,6.23
2023-01-05T20:31:31.265Z,6.32
2023-01-05T20:34:06.639Z,6.13
2023-01-05T20:36:38.136Z,6.30
2023-01-05T20:39:11.373Z,5.63
2023-01-05T20:41:45.706Z,6.25
2023-01-05T20:44:20.810Z,5.78
2023-01-05T20:46:54.085Z,5.50
2023-01-05T20:49:25.552Z,5.50
2023-01-05T20:51:57.104Z,6.40
2023-01-05T20:54:28.557Z,6.10
2023-01-05T20:57:00.278Z,5.43
2023-01-05T20:59:33.389Z,5.65
2023-01-05T21:02:12.370Z,5.20
2023-01-05T21:04:50.439Z,5.60
2023-01-05T21:07:22.332Z,6.03
2023-01-05T21:09:54.139Z,5.32
2023-01-05T21:12:25.568Z,5.55
2023-01-05T21:14:57.012Z,4.68
2023-01-05T21:17:28.507Z,5.63
2023-01-05T21:19:59.948Z,5.28
2023-01-05T21:22:31.427Z,5.03
2023-01-05T21:25:02.843Z,4.20
2023-01-05T21:27:35.417Z,4.55
2023-01-05T21:30:07.603Z,4.40
2023-01-05T21:32:39.040Z,4.63
2023-01-05T21:35:10.477Z,4.22
2023-01-05T21:37:41.907Z,4.00
2023-01-05T21:40:13.381Z,4.20
2023-01-05T21:42:44.935Z,3.83
2023-01-05T21:45:17.989Z,3.67
2023-01-05T21:47:54.294Z,4.13
2023-01-05T21:50:26.027Z,3.80
2023-01-05T21:52:57.778Z,3.47
2023-01-05T21:55:29.988Z,3.70
2023-01-05T21:58:02.557Z,3.28
2023-01-05T22:00:34.123Z,3.20
2023-01-05T22:03:05.694Z,2.85
2023-01-05T22:05:37.131Z,3.10
2023-01-05T22:08:08.597Z,3.13
2023-01-05T22:10:40.046Z,3.30
2023-01-05T22:13:11.495Z,2.70
2023-01-05T22:15:44.540Z,3.20
2023-01-05T22:18:15.978Z,2.72
2023-01-05T22:20:47.748Z,2.95
2023-01-05T22:23:19.159Z,3.33
2023-01-05T22:26:08.980Z,2.72
2023-01-05T22:28:43.269Z,3.30
2023-01-05T22:31:20.720Z,3.03
2023-01-05T22:33:54.601Z,3.22
2023-01-05T22:36:27.918Z,3.40
2023-01-05T22:38:59.573Z,3.30
2023-01-05T22:41:31.327Z,3.60
2023-01-05T22:44:02.817Z,3.70
2023-01-05T22:46:35.050Z,3.67
2023-01-05T22:49:06.536Z,3.17
2023-01-05T22:51:38.038Z,3.55
2023-01-05T22:54:09.459Z,3.25
2023-01-05T22:56:40.924Z,3.35
2023-01-05T22:59:12.398Z,3.38
2023-01-05T23:01:44.203Z,3.43
2023-01-05T23:04:18.164Z,3.60
2023-01-05T23:06:49.605Z,3.33
2023-01-05T23:09:21.150Z,3.57
2023-01-05T23:11:52.614Z,2.90
2023-01-05T23:14:24.091Z,3.20
2023-01-05T23:16:55.580Z,3.55
2023-01-05T23:19:27.029Z,3.45
2023-01-05T23:21:58.445Z,2.87
2023-01-05T23:24:29.905Z,2.30
2023-01-05T23:27:01.384Z,2.70
2023-01-05T23:29:32.856Z,2.40
2023-01-05T23:32:04.850Z,2.40
2023-01-05T23:34:36.315Z,2.20
2023-01-05T23:37:07.797Z,2.15
2023-01-05T23:39:39.252Z,2.25
2023-01-05T23:42:10.658Z,1.80
2023-01-05T23:44:42.126Z,2.00
2023-01-05T23:47:13.599Z,1.70
2023-01-05T23:49:45.043Z,2.25
2023-01-05T23:52:16.552Z,1.80
2023-01-05T23:54:48.073Z,1.50
2023-01-05T23:57:19.526Z,2.20
2023-01-05T23:59:51.006Z,1.85
